Time;durP1;ratioP1;P1;durP2;ratioP2;P2;SDS_P1;SDS_P2;PMS_P1;PMS_P2;Temp;Humidity;BMP_temperature;BMP_pressure;BME280_temperature;BME280_humidity;BME280_pressure;Samples;Min_cycle;Max_cycle;Signal;HPM_P1;HPM_P2
2023/11/07 00:01:29;;;;;;;16.00;5.40;;;;;;;8.66;100.00;100544.75;6079098;19;20492;-71
2023/11/07 00:03:34;;;;;;;19.85;5.75;;;;;;;8.64;100.00;100540.50;6080143;19;20029;-72
2023/11/07 00:05:39;;;;;;;21.77;6.32;;;;;;;8.64;100.00;100536.09;6081204;19;20013;-72
2023/11/07 00:07:44;;;;;;;14.82;4.60;;;;;;;8.64;100.00;100540.50;6074627;19;20007;-72
2023/11/07 00:09:49;;;;;;;13.88;5.18;;;;;;;8.64;100.00;100549.19;6077666;19;20006;-72
2023/11/07 00:11:55;;;;;;;10.75;4.55;;;;;;;8.65;100.00;100537.78;6080851;19;20021;-73
2023/11/07 00:14:00;;;;;;;13.80;5.05;;;;;;;8.63;100.00;100551.84;6080781;19;20364;-73
2023/11/07 00:16:09;;;;;;;10.65;5.35;;;;;;;8.60;100.00;100551.97;6080860;19;20012;-73
2023/11/07 00:18:17;;;;;;;8.20;4.28;;;;;;;8.63;100.00;100557.09;6078749;19;20090;-73
2023/11/07 00:20:22;;;;;;;10.50;4.78;;;;;;;8.67;100.00;100553.47;6077607;19;20006;-71
2023/11/07 00:22:26;;;;;;;17.30;5.28;;;;;;;8.72;100.00;100568.09;6076955;19;20003;-73
2023/11/07 00:24:31;;;;;;;13.32;4.57;;;;;;;8.72;100.00;100562.84;6081627;19;20330;-72
2023/11/07 00:26:36;;;;;;;9.43;4.47;;;;;;;8.63;100.00;100559.72;6076907;19;20041;-72
2023/11/07 00:28:43;;;;;;;10.20;4.75;;;;;;;8.64;100.00;100558.81;6078852;19;20014;-72
2023/11/07 00:30:51;;;;;;;12.82;4.70;;;;;;;8.61;100.00;100565.03;6076417;19;20014;-72
2023/11/07 00:32:59;;;;;;;14.77;5.78;;;;;;;8.59;100.00;100566.00;6080584;19;20051;-72
2023/11/07 00:35:04;;;;;;;11.70;4.80;;;;;;;8.62;100.00;100564.09;6073967;19;20413;-73
2023/11/07 00:37:09;;;;;;;14.52;5.03;;;;;;;8.58;100.00;100562.50;6078607;19;20011;-72
2023/11/07 00:39:12;;;;;;;11.32;4.15;;;;;;;8.56;100.00;100566.97;6075308;19;20006;-72
2023/11/07 00:41:19;;;;;;;9.95;4.07;;;;;;;8.54;100.00;100568.78;6077692;19;20018;-72
2023/11/07 00:43:22;;;;;;;17.83;5.05;;;;;;;8.50;100.00;100573.25;6077106;19;20006;-72
2023/11/07 00:45:27;;;;;;;13.55;4.13;;;;;;;8.52;100.00;100570.59;6079114;19;20010;-72
2023/11/07 00:47:29;;;;;;;12.52;4.28;;;;;;;8.52;100.00;100575.81;6076250;19;20010;-72
2023/11/07 00:49:37;;;;;;;13.52;4.57;;;;;;;8.51;100.00;100566.28;6075709;19;20034;-74
2023/11/07 00:51:42;;;;;;;11.73;4.03;;;;;;;8.50;100.00;100564.53;6077242;19;20027;-73
2023/11/07 00:53:47;;;;;;;12.93;5.00;;;;;;;8.54;100.00;100576.63;6073644;19;20002;-73
2023/11/07 00:55:52;;;;;;;11.30;4.57;;;;;;;8.51;100.00;100574.13;6079354;19;20645;-73
2023/11/07 00:57:57;;;;;;;14.90;5.25;;;;;;;8.51;100.00;100581.97;6080277;19;20030;-73
2023/11/07 01:00:04;;;;;;;12.65;4.95;;;;;;;8.51;100.00;100595.06;6079157;19;20010;-74
2023/11/07 01:02:11;;;;;;;18.83;4.95;;;;;;;8.55;100.00;100591.41;6078899;19;20331;-73
2023/11/07 01:04:17;;;;;;;17.05;6.00;;;;;;;8.53;100.00;100593.25;6077649;19;20015;-73
2023/11/07 01:06:25;;;;;;;13.27;5.40;;;;;;;8.53;100.00;100599.34;6073454;19;20023;-73
2023/11/07 01:08:30;;;;;;;16.85;4.65;;;;;;;8.56;100.00;100599.25;6071725;19;20749;-73
2023/11/07 01:10:36;;;;;;;16.88;5.55;;;;;;;8.56;100.00;100603.63;6075598;19;20011;-72
2023/11/07 01:12:38;;;;;;;8.68;4.32;;;;;;;8.60;100.00;100606.97;6077811;19;20037;-73
2023/11/07 01:14:44;;;;;;;14.48;5.30;;;;;;;8.62;100.00;100608.63;6082189;19;20475;-74
2023/11/07 01:16:49;;;;;;;14.63;5.55;;;;;;;8.72;100.00;100617.88;6080129;19;20668;-74
2023/11/07 01:18:55;;;;;;;8.73;4.55;;;;;;;8.78;100.00;100614.16;6081055;19;20022;-73
2023/11/07 01:21:00;;;;;;;11.68;5.25;;;;;;;8.82;100.00;100614.91;6080659;19;20421;-73
2023/11/07 01:23:07;;;;;;;13.27;5.18;;;;;;;8.89;100.00;100612.00;6080280;19;20046;-73
2023/11/07 01:25:13;;;;;;;11.95;5.20;;;;;;;8.99;100.00;100602.03;6081635;19;20034;-73
2023/11/07 01:27:20;;;;;;;14.30;5.20;;;;;;;8.95;100.00;100613.53;6076439;19;20006;-74
2023/11/07 01:29:25;;;;;;;23.02;6.03;;;;;;;9.00;100.00;100603.72;6076783;19;20361;-73
2023/11/07 01:31:30;;;;;;;13.00;4.55;;;;;;;8.94;100.00;100609.22;6077016;19;20067;-73
2023/11/07 01:33:35;;;;;;;13.63;6.20;;;;;;;8.99;100.00;100602.88;6078203;19;20014;-72
2023/11/07 01:35:42;;;;;;;17.67;5.03;;;;;;;9.05;100.00;100604.41;6074301;19;20003;-72
2023/11/07 01:37:47;;;;;;;10.00;4.35;;;;;;;9.00;100.00;100608.97;6075404;19;20003;-72
2023/11/07 01:39:55;;;;;;;13.18;4.03;;;;;;;8.98;100.00;100606.44;6076496;19;20041;-72
2023/11/07 01:42:00;;;;;;;14.60;5.57;;;;;;;8.91;100.00;100601.47;6076229;19;20011;-73
2023/11/07 01:44:05;;;;;;;13.10;4.57;;;;;;;9.00;100.00;100604.63;6081345;19;20002;-71
2023/11/07 01:46:08;;;;;;;12.80;4.63;;;;;;;9.05;100.00;100593.94;6080378;19;20003;-71
2023/11/07 01:48:16;;;;;;;16.60;4.68;;;;;;;9.02;100.00;100591.44;6080222;19;20030;-72
2023/11/07 01:50:21;;;;;;;10.80;3.92;;;;;;;9.04;100.00;100600.09;6078806;19;20016;-71
2023/11/07 01:52:26;;;;;;;8.68;3.70;;;;;;;9.02;100.00;100594.91;6074537;19;20495;-71
2023/11/07 01:54:29;;;;;;;8.68;3.55;;;;;;;9.00;100.00;100604.63;6074072;19;20426;-72
2023/11/07 01:56:37;;;;;;;12.27;4.05;;;;;;;9.00;100.00;100595.88;6067924;19;20015;-71
2023/11/07 01:58:43;;;;;;;9.35;4.65;;;;;;;8.96;100.00;100599.53;6077329;19;20007;-72
2023/11/07 02:00:49;;;;;;;11.75;4.57;;;;;;;8.97;100.00;100603.84;6075599;19;20023;-71
2023/11/07 02:02:55;;;;;;;12.57;4.13;;;;;;;8.92;100.00;100600.56;6074636;19;20131;-73
2023/11/07 02:05:00;;;;;;;8.45;3.63;;;;;;;8.89;100.00;100600.66;6074738;19;20014;-73
2023/11/07 02:07:08;;;;;;;11.32;3.65;;;;;;;8.86;100.00;100608.66;6074651;19;20110;-72
2023/11/07 02:09:13;;;;;;;10.88;4.05;;;;;;;8.93;100.00;100607.53;6075488;19;20050;-72
2023/11/07 02:11:19;;;;;;;13.90;4.55;;;;;;;8.87;100.00;100611.19;6075805;19;20049;-72
2023/11/07 02:13:27;;;;;;;9.45;3.92;;;;;;;8.82;100.00;100609.66;6073739;19;20014;-71
2023/11/07 02:15:35;;;;;;;13.07;4.80;;;;;;;8.81;100.00;100610.59;6074813;19;20006;-72
2023/11/07 02:17:37;;;;;;;14.50;4.00;;;;;;;8.79;100.00;100622.00;6076017;19;20713;-72
2023/11/07 02:19:42;;;;;;;13.18;4.38;;;;;;;8.79;100.00;100627.22;6080276;19;20078;-72
2023/11/07 02:21:53;;;;;;;11.05;4.65;;;;;;;8.81;100.00;100621.06;6075085;19;20019;-72
2023/11/07 02:24:02;;;;;;;9.63;4.57;;;;;;;8.83;100.00;100617.47;6074114;19;20003;-72
2023/11/07 02:26:05;;;;;;;11.40;4.88;;;;;;;8.82;100.00;100625.38;6075831;19;20487;-72
2023/11/07 02:28:09;;;;;;;9.20;4.25;;;;;;;8.82;100.00;100622.75;6070642;19;20442;-72
2023/11/07 02:30:13;;;;;;;12.45;4.43;;;;;;;8.80;100.00;100617.59;6072706;19;20015;-73
2023/11/07 02:32:21;;;;;;;13.73;4.40;;;;;;;8.77;100.00;100615.09;6074066;19;20002;-72
2023/11/07 02:34:26;;;;;;;18.45;5.60;;;;;;;8.75;100.00;100615.13;6075471;19;20046;-72
2023/11/07 02:36:29;;;;;;;9.57;4.00;;;;;;;8.77;100.00;100613.31;6074899;19;20006;-72
2023/11/07 02:38:34;;;;;;;7.95;3.80;;;;;;;8.71;100.00;100613.53;6068250;19;20034;-72
2023/11/07 02:40:42;;;;;;;6.07;3.17;;;;;;;8.72;100.00;100610.00;6072083;19;20002;-71
2023/11/07 02:42:44;;;;;;;9.57;3.70;;;;;;;8.72;100.00;100614.41;6074764;19;21633;-72
2023/11/07 02:44:49;;;;;;;10.82;3.85;;;;;;;8.69;100.00;100611.88;6076870;19;20003;-72
2023/11/07 02:46:54;;;;;;;8.43;3.60;;;;;;;8.67;100.00;100618.94;6074708;19;20015;-71
2023/11/07 02:48:59;;;;;;;9.35;3.70;;;;;;;8.68;100.00;100615.41;6075191;19;20003;-71
2023/11/07 02:51:07;;;;;;;7.82;3.90;;;;;;;8.65;100.00;100621.63;6075765;19;20014;-72
2023/11/07 02:53:13;;;;;;;9.45;3.60;;;;;;;8.61;100.00;100620.03;6072650;19;20424;-71
2023/11/07 02:55:18;;;;;;;7.72;3.58;;;;;;;8.60;100.00;100620.94;6077681;19;20007;-72
2023/11/07 02:57:25;;;;;;;11.98;4.25;;;;;;;8.62;100.00;100629.59;6076124;19;20014;-73
2023/11/07 02:59:30;;;;;;;12.27;3.92;;;;;;;8.59;100.00;100623.63;6075126;19;20003;-73
2023/11/07 03:01:35;;;;;;;13.13;3.33;;;;;;;8.53;100.00;100625.53;6077585;19;20002;-73
2023/11/07 03:03:42;;;;;;;6.22;3.65;;;;;;;8.48;100.00;100621.38;6076377;19;20641;-72
2023/11/07 03:05:48;;;;;;;13.52;5.07;;;;;;;8.49;100.00;100623.94;6076638;19;20045;-73
2023/11/07 03:07:53;;;;;;;9.23;4.28;;;;;;;8.42;100.00;100630.28;6074794;19;20490;-72
2023/11/07 03:09:58;;;;;;;11.02;3.85;;;;;;;8.36;100.00;100622.63;6075729;19;20019;-72
2023/11/07 03:12:03;;;;;;;12.40;4.30;;;;;;;8.35;100.00;100623.53;6073098;19;20527;-71
2023/11/07 03:14:11;;;;;;;9.73;3.88;;;;;;;8.33;100.00;100617.50;6074130;19;20241;-72
2023/11/07 03:16:16;;;;;;;9.18;4.15;;;;;;;8.28;100.00;100616.78;6077412;19;20498;-72
2023/11/07 03:18:21;;;;;;;8.32;4.03;;;;;;;8.24;100.00;100617.78;6073224;19;20341;-71
2023/11/07 03:20:27;;;;;;;9.93;3.60;;;;;;;8.23;100.00;100613.47;6072338;19;20368;-71
2023/11/07 03:22:32;;;;;;;13.30;4.25;;;;;;;8.20;100.00;100614.44;6075251;19;20327;-71
2023/11/07 03:24:37;;;;;;;12.77;4.57;;;;;;;8.16;100.00;100610.19;6073764;19;20438;-70
2023/11/07 03:26:42;;;;;;;12.13;4.30;;;;;;;8.13;100.00;100611.16;6074847;19;20688;-71
2023/11/07 03:28:47;;;;;;;12.05;4.05;;;;;;;8.14;100.00;100614.66;6070541;19;20396;-71
2023/11/07 03:30:54;;;;;;;10.45;3.90;;;;;;;8.09;100.00;100613.97;6074981;19;20009;-72
2023/11/07 03:32:59;;;;;;;9.52;3.92;;;;;;;8.09;100.00;100614.81;6073735;19;20022;-71
2023/11/07 03:35:05;;;;;;;10.85;3.67;;;;;;;7.99;100.00;100616.03;6072177;19;20038;-71
2023/11/07 03:37:11;;;;;;;10.93;4.30;;;;;;;8.05;100.00;100607.09;6070840;19;20471;-72
2023/11/07 03:39:13;;;;;;;10.02;4.07;;;;;;;8.00;100.00;100611.63;6071169;19;20392;-71
2023/11/07 03:41:22;;;;;;;7.65;3.55;;;;;;;7.97;100.00;100614.34;6070692;19;20003;-71
2023/11/07 03:43:27;;;;;;;8.88;3.35;;;;;;;7.91;100.00;100616.28;6074970;19;20014;-72
2023/11/07 03:45:29;;;;;;;7.28;3.45;;;;;;;7.93;100.00;100618.84;6074559;19;20002;-71
2023/11/07 03:47:37;;;;;;;;;;;;;;;7.87;100.00;100622.53;6076137;19;20011;-72
2023/11/07 03:49:42;;;;;;;9.20;3.28;;;;;;;7.85;100.00;100616.47;6073268;19;19914;-71
2023/11/07 03:51:47;;;;;;;8.00;2.97;;;;;;;7.79;100.00;100615.81;6075546;19;20114;-72
2023/11/07 03:53:53;;;;;;;9.50;3.20;;;;;;;7.79;100.00;100621.91;6073294;19;20018;-72
2023/11/07 03:55:59;;;;;;;9.95;3.15;;;;;;;7.86;100.00;100626.03;6073125;19;20014;-72
2023/11/07 03:58:04;;;;;;;8.10;2.92;;;;;;;7.84;100.00;100627.84;6074616;19;20086;-72
2023/11/07 04:00:12;;;;;;;8.50;3.53;;;;;;;7.86;100.00;100630.41;6072922;19;20007;-71
2023/11/07 04:02:19;;;;;;;5.80;2.00;;;;;;;7.89;100.00;100625.06;6073258;19;20063;-71
2023/11/07 04:04:28;;;;;;;5.53;2.30;;;;;;;7.86;100.00;100631.25;6076557;19;20010;-72
2023/11/07 04:06:31;;;;;;;3.53;2.10;;;;;;;7.88;100.00;100634.69;6071721;19;20034;-72
2023/11/07 04:08:35;;;;;;;;;;;;;;;7.84;100.00;100632.22;6073662;19;20034;-72
2023/11/07 04:10:40;;;;;;;5.57;2.15;;;;;;;7.83;100.00;100630.50;6076577;19;20023;-72
2023/11/07 04:12:46;;;;;;;3.17;1.75;;;;;;;7.90;100.00;100625.03;6070377;19;20006;-71
2023/11/07 04:14:51;;;;;;;5.22;2.08;;;;;;;7.89;100.00;100623.31;6075588;19;20038;-71
2023/11/07 04:16:59;;;;;;;5.15;1.98;;;;;;;7.83;100.00;100618.28;6075979;19;20009;-71
2023/11/07 04:19:07;;;;;;;3.72;1.65;;;;;;;7.89;100.00;100627.69;6078482;19;20705;-71
2023/11/07 04:21:17;;;;;;;2.28;1.50;;;;;;;7.91;100.00;100629.34;6081287;19;20011;-71
2023/11/07 04:23:23;;;;;;;2.33;1.40;;;;;;;7.85;100.00;100632.19;6074240;19;20394;-71
2023/11/07 04:25:28;;;;;;;5.18;1.95;;;;;;;7.85;100.00;100633.94;6078488;19;20018;-71
2023/11/07 04:27:34;;;;;;;2.15;1.48;;;;;;;7.88;100.00;100637.31;6079037;19;20392;-71
2023/11/07 04:29:40;;;;;;;3.78;1.42;;;;;;;7.82;100.00;100637.50;6080908;19;20046;-71
2023/11/07 04:31:45;;;;;;;2.97;1.33;;;;;;;7.78;100.00;100641.13;6073725;19;20010;-72
2023/11/07 04:33:53;;;;;;;5.40;1.42;;;;;;;7.81;100.00;100641.03;6080167;19;21151;-72
2023/11/07 04:35:55;;;;;;;1.60;1.35;;;;;;;7.77;100.00;100638.56;6078932;19;20010;-72
2023/11/07 04:38:04;;;;;;;2.60;1.65;;;;;;;7.84;100.00;100638.28;6077399;19;20011;-72
2023/11/07 04:40:08;;;;;;;2.70;1.38;;;;;;;7.76;100.00;100631.63;6078305;19;20345;-72
2023/11/07 04:42:13;;;;;;;2.80;1.48;;;;;;;7.79;100.00;100637.59;6079215;19;20243;-71
2023/11/07 04:44:22;;;;;;;3.80;1.73;;;;;;;7.82;100.00;100634.91;6077060;19;20448;-71
2023/11/07 04:46:27;;;;;;;2.63;1.67;;;;;;;7.76;100.00;100635.06;6078204;19;20019;-74
2023/11/07 04:48:32;;;;;;;2.30;1.52;;;;;;;7.74;100.00;100647.38;6080901;19;20340;-72
2023/11/07 04:50:38;;;;;;;2.97;1.75;;;;;;;7.74;100.00;100650.00;6079404;19;20046;-72
2023/11/07 04:52:43;;;;;;;4.25;1.60;;;;;;;7.76;100.00;100650.78;6075081;19;20045;-72
2023/11/07 04:54:51;;;;;;;1.30;1.20;;;;;;;7.80;100.00;100655.00;6079580;19;20010;-72
2023/11/07 04:56:57;;;;;;;3.65;1.42;;;;;;;7.74;100.00;100659.56;6075342;19;20010;-71
2023/11/07 04:59:02;;;;;;;2.15;1.35;;;;;;;7.74;100.00;100649.09;6079949;19;20007;-72
2023/11/07 05:01:09;;;;;;;3.75;1.48;;;;;;;7.70;100.00;100659.66;6078921;19;20002;-72
2023/11/07 05:03:14;;;;;;;2.60;1.40;;;;;;;7.71;100.00;100660.53;6078744;19;20030;-72
2023/11/07 05:05:21;;;;;;;5.78;1.55;;;;;;;7.73;100.00;100658.72;6078969;19;20010;-72
2023/11/07 05:07:26;;;;;;;2.90;1.70;;;;;;;7.76;100.00;100647.31;6075484;19;20023;-71
2023/11/07 05:09:31;;;;;;;1.77;1.30;;;;;;;7.75;100.00;100645.59;6080634;19;20481;-72
2023/11/07 05:11:39;;;;;;;3.85;1.75;;;;;;;7.80;100.00;100641.09;6073849;19;20466;-72
2023/11/07 05:13:44;;;;;;;3.10;1.30;;;;;;;7.83;100.00;100651.44;6080570;19;20070;-72
2023/11/07 05:15:50;;;;;;;1.95;1.60;;;;;;;7.79;100.00;100637.59;6081590;19;20569;-72
2023/11/07 05:17:55;;;;;;;3.78;1.42;;;;;;;7.78;100.00;100643.75;6081895;19;20010;-72
2023/11/07 05:19:57;;;;;;;3.28;1.90;;;;;;;7.73;100.00;100642.19;6079295;19;20013;-72
2023/11/07 05:22:03;;;;;;;3.95;1.85;;;;;;;7.70;100.00;100637.91;6082457;19;20037;-72
2023/11/07 05:24:09;;;;;;;3.20;1.65;;;;;;;7.68;100.00;100650.16;6078842;19;20086;-72
2023/11/07 05:26:14;;;;;;;2.70;1.60;;;;;;;7.66;100.00;100646.72;6081418;19;20099;-72
2023/11/07 05:28:24;;;;;;;6.13;2.10;;;;;;;7.62;100.00;100647.75;6078207;19;20017;-72
2023/11/07 05:30:29;;;;;;;3.13;1.25;;;;;;;7.64;100.00;100648.56;6081108;19;20534;-72
2023/11/07 05:32:32;;;;;;;5.50;2.05;;;;;;;7.58;100.00;100648.72;6077897;19;20074;-72
2023/11/07 05:34:39;;;;;;;;;;;;;;;7.55;100.00;100654.91;6080561;19;20241;-73
2023/11/07 05:36:44;;;;;;;3.05;1.52;;;;;;;7.62;100.00;100655.59;6079690;19;20462;-72
2023/11/07 05:38:49;;;;;;;4.88;2.00;;;;;;;7.54;100.00;100654.97;6080035;19;20729;-72
2023/11/07 05:40:52;;;;;;;4.03;1.70;;;;;;;7.54;100.00;100647.97;6080605;19;20007;-73
2023/11/07 05:42:57;;;;;;;2.70;1.52;;;;;;;7.56;100.00;100653.19;6080265;19;20010;-72
2023/11/07 05:45:07;;;;;;;1.58;1.48;;;;;;;7.61;100.00;100661.72;6078077;19;20014;-72
2023/11/07 05:47:12;;;;;;;3.47;1.95;;;;;;;7.60;100.00;100668.72;6080577;19;20411;-74
2023/11/07 05:49:20;;;;;;;1.35;1.25;;;;;;;7.61;100.00;100675.66;6080115;19;20029;-71
2023/11/07 05:51:26;;;;;;;2.70;1.58;;;;;;;7.63;100.00;100668.59;6080694;19;20006;-74
2023/11/07 05:53:31;;;;;;;5.80;2.30;;;;;;;7.69;100.00;100667.59;6072626;19;20024;-70
2023/11/07 05:55:36;;;;;;;2.75;1.70;;;;;;;7.71;100.00;100665.75;6080913;19;20434;-73
2023/11/07 05:57:41;;;;;;;7.38;2.95;;;;;;;7.73;100.00;100668.34;6077868;19;20050;-73
2023/11/07 05:59:46;;;;;;;3.45;1.60;;;;;;;7.75;100.00;100666.53;6077908;19;20028;-73
2023/11/07 06:01:54;;;;;;;5.82;2.03;;;;;;;7.75;100.00;100656.91;6081522;19;20408;-74
2023/11/07 06:03:59;;;;;;;4.15;1.80;;;;;;;7.79;100.00;100671.59;6079059;19;20054;-73
2023/11/07 06:06:04;;;;;;;4.80;2.58;;;;;;;7.75;100.00;100669.16;6080867;19;20022;-72
2023/11/07 06:08:09;;;;;;;6.75;2.15;;;;;;;7.73;100.00;100669.19;6078415;19;20008;-72
2023/11/07 06:10:16;;;;;;;3.90;1.70;;;;;;;7.70;100.00;100669.28;6076779;19;20010;-72
2023/11/07 06:12:18;;;;;;;7.50;2.05;;;;;;;7.69;100.00;100672.81;6073185;19;20020;-72
2023/11/07 06:14:23;;;;;;;3.70;1.95;;;;;;;7.74;100.00;100670.03;6074955;19;20013;-72
2023/11/07 06:16:28;;;;;;;3.97;2.08;;;;;;;7.69;100.00;100665.81;6077957;19;20010;-71
2023/11/07 06:18:39;;;;;;;3.40;2.00;;;;;;;7.69;100.00;100670.19;6075667;19;20002;-72
2023/11/07 06:20:44;;;;;;;4.90;2.10;;;;;;;7.70;100.00;100671.91;6078908;19;20535;-71
2023/11/07 06:22:51;;;;;;;5.85;2.30;;;;;;;7.73;100.00;100671.81;6081282;19;20660;-72
2023/11/07 06:24:56;;;;;;;7.22;2.42;;;;;;;7.68;100.00;100666.69;6080705;19;20444;-73
2023/11/07 06:27:01;;;;;;;4.72;2.00;;;;;;;7.73;100.00;100674.41;6078948;19;20042;-72
2023/11/07 06:29:06;;;;;;;4.93;2.25;;;;;;;7.63;100.00;100673.84;6079849;19;20025;-71
2023/11/07 06:31:11;;;;;;;3.03;1.83;;;;;;;7.60;100.00;100673.94;6081046;19;20047;-71
2023/11/07 06:33:19;;;;;;;9.45;3.15;;;;;;;7.55;100.00;100682.81;6079882;19;20006;-72
2023/11/07 06:35:27;;;;;;;3.38;2.47;;;;;;;7.60;100.00;100683.53;6075146;19;20007;-72
2023/11/07 06:37:33;;;;;;;5.95;2.47;;;;;;;7.57;100.00;100683.66;6071362;19;20214;-72
2023/11/07 06:39:39;;;;;;;2.47;1.70;;;;;;;7.54;100.00;100687.22;6077503;19;20011;-71
2023/11/07 06:41:44;;;;;;;1.95;1.77;;;;;;;7.53;100.00;100684.63;6078824;19;20013;-74
2023/11/07 06:43:50;;;;;;;4.70;1.83;;;;;;;7.55;100.00;100691.53;6078598;19;20014;-74
2023/11/07 06:45:55;;;;;;;5.57;2.13;;;;;;;7.53;100.00;100697.69;6073403;19;20057;-72
2023/11/07 06:48:01;;;;;;;3.25;1.70;;;;;;;7.50;100.00;100703.03;6078143;19;20608;-71
2023/11/07 06:50:07;;;;;;;6.97;2.47;;;;;;;7.48;100.00;100703.09;6078832;19;20352;-72
2023/11/07 06:52:15;;;;;;;5.15;2.05;;;;;;;7.43;100.00;100698.00;6074828;19;20010;-72
2023/11/07 06:54:20;;;;;;;4.47;2.17;;;;;;;7.38;100.00;100699.03;6078781;19;20385;-73
2023/11/07 06:56:25;;;;;;;6.63;2.38;;;;;;;7.42;100.00;100696.25;6079592;19;20006;-73
2023/11/07 06:58:31;;;;;;;1.92;1.58;;;;;;;7.44;100.00;100698.84;6078152;19;20294;-73
2023/11/07 07:00:38;;;;;;;3.53;2.25;;;;;;;7.47;100.00;100701.34;6079127;19;20007;-74
2023/11/07 07:02:42;;;;;;;3.53;1.65;;;;;;;7.42;100.00;100705.88;6075184;19;20034;-73
2023/11/07 07:04:47;;;;;;;3.17;1.77;;;;;;;7.45;100.00;100706.66;6075942;19;20023;-72
2023/11/07 07:06:49;;;;;;;5.07;1.33;;;;;;;7.47;100.00;100709.19;6076591;19;20012;-74
2023/11/07 07:08:57;;;;;;;4.28;2.03;;;;;;;7.48;100.00;100714.41;6076211;19;20003;-72
2023/11/07 07:11:04;;;;;;;3.80;2.28;;;;;;;7.49;100.00;100717.88;6075847;19;20038;-72
2023/11/07 07:13:09;;;;;;;2.15;1.77;;;;;;;7.51;100.00;100716.06;6076558;19;20011;-72
2023/11/07 07:15:14;;;;;;;6.38;1.75;;;;;;;7.51;100.00;100716.06;6069471;19;20022;-70
2023/11/07 07:17:20;;;;;;;3.05;1.60;;;;;;;7.51;100.00;100725.69;6074879;19;20047;-73
2023/11/07 07:19:25;;;;;;;4.32;1.50;;;;;;;7.56;100.00;100719.41;6076589;19;20002;-71
2023/11/07 07:21:30;;;;;;;5.90;1.73;;;;;;;7.56;100.00;100726.41;6074781;19;20426;-71
2023/11/07 07:23:36;;;;;;;3.30;1.75;;;;;;;7.51;100.00;100723.06;6072256;19;20045;-71
2023/11/07 07:25:43;;;;;;;6.60;1.80;;;;;;;7.58;100.00;100722.84;6077234;19;20010;-71
2023/11/07 07:27:48;;;;;;;5.72;1.73;;;;;;;7.67;100.00;100726.94;6071927;19;20010;-72
2023/11/07 07:29:54;;;;;;;3.13;2.22;;;;;;;7.60;100.00;100730.63;6071252;19;20007;-71
2023/11/07 07:31:59;;;;;;;6.93;2.28;;;;;;;7.59;100.00;100734.16;6076619;19;20454;-72
2023/11/07 07:34:05;;;;;;;3.65;1.75;;;;;;;7.60;100.00;100734.09;6078794;19;20435;-72
2023/11/07 07:36:15;;;;;;;2.70;1.50;;;;;;;7.60;100.00;100734.09;6077839;19;20006;-72
2023/11/07 07:38:20;;;;;;;3.28;2.05;;;;;;;7.66;100.00;100738.25;6076388;19;20011;-72
2023/11/07 07:40:29;;;;;;;2.97;1.90;;;;;;;7.59;100.00;100734.16;6075768;19;20018;-72
2023/11/07 07:42:38;;;;;;;10.00;2.10;;;;;;;7.68;100.00;100736.47;6074059;19;20567;-72
2023/11/07 07:44:43;;;;;;;4.25;2.22;;;;;;;7.66;100.00;100735.66;6076705;19;20014;-72
2023/11/07 07:46:51;;;;;;;8.32;2.70;;;;;;;7.63;100.00;100733.97;6070336;19;20471;-73
2023/11/07 07:48:56;;;;;;;2.70;2.05;;;;;;;7.65;100.00;100733.94;6072219;19;20038;-72
2023/11/07 07:51:06;;;;;;;4.80;2.25;;;;;;;7.62;100.00;100734.06;6071724;19;20063;-72
2023/11/07 07:53:14;;;;;;;3.20;2.03;;;;;;;7.73;100.00;100741.56;6071990;19;20390;-72
2023/11/07 07:55:20;;;;;;;6.20;2.80;;;;;;;7.75;100.00;100738.00;6077773;19;20058;-71
2023/11/07 07:57:41;;;;;;;7.57;2.92;;;;;;;7.79;100.00;100742.22;6076938;19;20006;-72
2023/11/07 07:59:46;;;;;;;4.10;2.55;;;;;;;7.85;100.00;100742.06;6080658;19;20011;-72
2023/11/07 08:01:55;;;;;;;6.95;2.40;;;;;;;7.91;100.00;100743.63;6080095;19;20006;-72
2023/11/07 08:04:01;;;;;;;12.65;2.67;;;;;;;7.98;100.00;100747.78;6078022;19;20503;-73
2023/11/07 08:06:08;;;;;;;10.23;2.97;;;;;;;8.03;100.00;100758.94;6080608;19;20602;-72
2023/11/07 08:08:16;;;;;;;6.85;2.50;;;;;;;8.13;100.00;100751.66;6078445;19;20061;-73
2023/11/07 08:10:22;;;;;;;6.35;3.83;;;;;;;8.17;100.00;100763.75;6080800;19;21441;-72
2023/11/07 08:12:27;;;;;;;6.13;2.63;;;;;;;8.30;100.00;100767.69;6074730;19;20011;-73
2023/11/07 08:14:35;;;;;;;6.75;2.90;;;;;;;8.33;100.00;100767.56;6078051;19;20010;-73
2023/11/07 08:16:41;;;;;;;6.43;2.88;;;;;;;8.40;100.00;100772.63;6079415;19;20307;-72
2023/11/07 08:18:46;;;;;;;12.00;3.25;;;;;;;8.44;100.00;100750.69;6080303;19;20018;-72
2023/11/07 08:20:52;;;;;;;6.63;2.95;;;;;;;8.52;100.00;100773.09;6078812;19;20151;-72
2023/11/07 08:22:57;;;;;;;6.82;3.30;;;;;;;8.54;100.00;100768.66;6079862;19;20034;-73
2023/11/07 08:25:03;;;;;;;6.93;3.47;;;;;;;8.49;100.00;100770.59;6080089;19;20010;-72
2023/11/07 08:27:08;;;;;;;8.82;3.67;;;;;;;8.46;100.00;100772.47;6076964;19;20007;-72
2023/11/07 08:29:11;;;;;;;5.30;3.08;;;;;;;8.54;100.00;100770.44;6074032;19;20038;-73
2023/11/07 08:31:22;;;;;;;9.95;4.00;;;;;;;8.49;100.00;100772.34;6075120;19;20002;-71
2023/11/07 08:33:27;;;;;;;7.30;3.50;;;;;;;8.48;100.00;100781.97;6070305;19;20007;-71
2023/11/07 08:35:36;;;;;;;6.68;3.33;;;;;;;8.53;100.00;100781.81;6077161;19;20006;-71
2023/11/07 08:37:41;;;;;;;7.78;3.13;;;;;;;8.50;100.00;100779.28;6071061;19;20431;-73
2023/11/07 08:39:44;;;;;;;6.35;3.00;;;;;;;8.56;100.00;100784.34;6074435;19;20042;-70
2023/11/07 08:41:49;;;;;;;;;;;;;;;8.55;100.00;100780.00;6079131;19;20297;-73
2023/11/07 08:43:54;;;;;;;4.78;2.53;;;;;;;8.57;100.00;100789.50;6078232;19;20486;-72
2023/11/07 08:45:56;;;;;;;6.85;2.80;;;;;;;8.70;100.00;100784.72;6079585;19;20021;-72
2023/11/07 08:48:04;;;;;;;5.00;2.90;;;;;;;8.72;100.00;100789.94;6075743;19;20520;-72
2023/11/07 08:50:07;;;;;;;8.07;2.42;;;;;;;8.76;100.00;100794.16;6075674;19;20506;-72
2023/11/07 08:52:14;;;;;;;6.68;2.60;;;;;;;8.76;100.00;100795.00;6071523;19;20616;-72
2023/11/07 08:54:19;;;;;;;6.90;2.95;;;;;;;8.82;100.00;100793.06;6073588;19;20013;-73
2023/11/07 08:56:24;;;;;;;13.00;3.25;;;;;;;8.87;100.00;100797.25;6079796;19;20034;-71
2023/11/07 08:58:32;;;;;;;9.32;4.38;;;;;;;8.93;100.00;100801.44;6079814;19;20013;-71
2023/11/07 09:00:39;;;;;;;7.65;2.88;;;;;;;9.04;100.00;100804.56;6074076;19;19999;-73
2023/11/07 09:02:44;;;;;;;7.55;3.30;;;;;;;9.09;100.00;100800.00;6075780;19;20363;-71
2023/11/07 09:04:54;;;;;;;8.63;2.75;;;;;;;9.17;100.00;100805.81;6077284;19;20397;-71
2023/11/07 09:07:00;;;;;;;8.43;3.03;;;;;;;9.28;100.00;100807.22;6077370;19;20454;-72
2023/11/07 09:09:07;;;;;;;4.90;2.85;;;;;;;9.33;100.00;100808.75;6076195;19;20417;-71
2023/11/07 09:11:12;;;;;;;8.73;3.30;;;;;;;9.38;100.00;100803.34;6078178;19;20002;-70
2023/11/07 09:13:17;;;;;;;11.50;2.95;;;;;;;9.41;100.00;100806.72;6075404;19;20016;-71
2023/11/07 09:15:25;;;;;;;10.20;2.75;;;;;;;9.52;100.00;100803.69;6076290;19;22592;-72
2023/11/07 09:17:30;;;;;;;6.05;2.70;;;;;;;9.53;100.00;100808.06;6077931;19;20006;-70
2023/11/07 09:19:37;;;;;;;6.45;3.13;;;;;;;9.64;100.00;100811.13;6075495;19;20027;-70
2023/11/07 09:21:45;;;;;;;11.45;3.22;;;;;;;9.70;100.00;100809.19;6071532;19;20007;-71
2023/11/07 09:23:50;;;;;;;6.63;2.70;;;;;;;9.74;100.00;100810.78;6075410;19;20038;-71
2023/11/07 09:25:55;;;;;;;8.50;2.80;;;;;;;9.69;100.00;100816.22;6076815;19;20340;-71
2023/11/07 09:28:01;;;;;;;10.05;2.60;;;;;;;9.83;100.00;100818.31;6077519;19;20625;-72
2023/11/07 09:30:09;;;;;;;6.63;3.08;;;;;;;9.90;100.00;100822.44;6076973;19;20582;-71
2023/11/07 09:32:15;;;;;;;13.85;3.10;;;;;;;9.86;100.00;100812.94;6077727;19;20078;-71
2023/11/07 09:34:20;;;;;;;5.68;2.55;;;;;;;10.04;100.00;100817.50;6077868;19;20034;-73
2023/11/07 09:36:27;;;;;;;12.35;3.40;;;;;;;10.15;100.00;100824.09;6078719;19;20015;-71
2023/11/07 09:38:34;;;;;;;4.22;2.55;;;;;;;10.13;100.00;100828.53;6079847;19;20538;-71
2023/11/07 09:40:56;;;;;;;10.30;3.03;;;;;;;10.07;100.00;100814.75;6080235;19;20006;-71
2023/11/07 09:43:03;;;;;;;7.72;3.13;;;;;;;10.24;100.00;100836.84;6080627;19;20798;-71
2023/11/07 09:45:14;;;;;;;7.68;3.05;;;;;;;10.20;100.00;100830.03;6080532;19;20034;-71